createdAt,value
2019-05-03T00:02:28.320Z,54.60
2019-05-03T00:05:26.253Z,54.06
2019-05-03T00:07:59.814Z,54.34
2019-05-03T00:10:27.364Z,53.11
2019-05-03T00:12:54.807Z,53.18
2019-05-03T00:15:32.688Z,54.88
2019-05-03T00:18:00.035Z,54.63
2019-05-03T00:20:27.387Z,53.05
2019-05-03T00:22:54.566Z,53.75
2019-05-03T00:25:22.220Z,54.51
2019-05-03T00:27:49.478Z,55.96
2019-05-03T00:30:16.992Z,54.76
2019-05-03T00:32:44.333Z,54.56
2019-05-03T00:35:25.277Z,54.27
2019-05-03T00:37:54.437Z,55.28
2019-05-03T00:40:32.389Z,53.79
2019-05-03T00:42:59.898Z,53.58
2019-05-03T00:45:27.169Z,54.32
2019-05-03T00:47:54.561Z,52.82
2019-05-03T00:50:22.662Z,54.71
2019-05-03T00:52:51.552Z,53.73
2019-05-03T00:55:19.384Z,52.94
2019-05-03T00:57:46.869Z,54.15
2019-05-03T01:00:14.813Z,53.51
2019-05-03T01:02:42.422Z,53.54
2019-05-03T01:05:11.822Z,52.93
2019-05-03T01:07:39.008Z,53.75
2019-05-03T01:10:08.220Z,56.56
2019-05-03T01:12:35.491Z,55.36
2019-05-03T01:15:05.718Z,52.89
2019-05-03T01:17:35.401Z,54.25
2019-05-03T01:20:04.283Z,56.50
2019-05-03T01:22:32.251Z,55.48
2019-05-03T01:24:59.700Z,54.78
2019-05-03T01:27:26.999Z,57.13
2019-05-03T01:29:54.133Z,55.48
2019-05-03T01:32:22.261Z,54.95
2019-05-03T01:34:49.833Z,55.62
2019-05-03T01:37:17.188Z,56.03
2019-05-03T01:39:44.344Z,55.36
2019-05-03T01:42:11.991Z,57.71
2019-05-03T01:44:39.385Z,55.85
2019-05-03T01:47:11.533Z,57.49
2019-05-03T01:49:51.952Z,58.01
2019-05-03T01:52:29.236Z,57.41
2019-05-03T01:54:56.559Z,57.59
2019-05-03T01:57:23.703Z,56.95
2019-05-03T01:59:52.080Z,55.88
2019-05-03T02:02:52.528Z,56.19
2019-05-03T02:05:39.390Z,55.38
2019-05-03T02:08:06.853Z,56.58
2019-05-03T02:10:34.096Z,56.46
2019-05-03T02:13:01.705Z,55.98
2019-05-03T02:15:29.178Z,56.36
2019-05-03T02:17:56.428Z,55.95
2019-05-03T02:20:23.596Z,55.15
2019-05-03T02:22:52.184Z,55.85
2019-05-03T02:25:21.642Z,55.62
2019-05-03T02:27:48.746Z,55.26
2019-05-03T02:30:16.209Z,55.11
2019-05-03T02:32:44.130Z,55.17
2019-05-03T02:35:13.949Z,54.52
2019-05-03T02:37:44.058Z,54.27
2019-05-03T02:40:12.976Z,54.00
2019-05-03T02:42:46.144Z,53.52
2019-05-03T02:45:20.768Z,53.19
2019-05-03T02:47:55.580Z,53.06
2019-05-03T02:50:25.776Z,52.93
2019-05-03T02:52:51.868Z,53.08
2019-05-03T02:55:19.442Z,53.31
2019-05-03T02:57:46.999Z,53.50
2019-05-03T03:00:16.527Z,53.72
2019-05-03T03:02:45.640Z,53.87
2019-05-03T03:05:16.313Z,53.85
2019-05-03T03:07:46.163Z,53.62
2019-05-03T03:10:16.146Z,53.40
2019-05-03T03:12:46.958Z,53.69
2019-05-03T03:15:16.308Z,53.38
2019-05-03T03:17:46.304Z,53.67
2019-05-03T03:20:16.159Z,53.86
2019-05-03T03:22:45.783Z,53.92
2019-05-03T03:25:21.289Z,54.77
2019-05-03T03:27:51.645Z,55.85
2019-05-03T03:31:17.301Z,55.84
2019-05-03T03:33:47.117Z,55.63
2019-05-03T03:36:42.186Z,56.13
2019-05-03T03:38:45.771Z,56.48
2019-05-03T03:41:16.287Z,56.69
2019-05-03T03:43:46.346Z,56.10
2019-05-03T03:46:16.252Z,56.36
2019-05-03T03:48:46.099Z,56.17
2019-05-03T03:51:16.757Z,57.34
2019-05-03T03:53:46.496Z,56.40
2019-05-03T03:56:18.497Z,57.44
2019-05-03T03:58:47.921Z,57.38
2019-05-03T04:01:26.380Z,58.23
2019-05-03T04:03:52.592Z,57.93
2019-05-03T04:06:22.404Z,56.40
2019-05-03T04:09:01.051Z,56.90
2019-05-03T04:11:28.694Z,57.10
2019-05-03T04:13:56.178Z,56.25
2019-05-03T04:16:36.440Z,57.43
2019-05-03T04:19:12.691Z,56.74
2019-05-03T04:21:40.194Z,57.44
2019-05-03T04:24:08.356Z,59.27
2019-05-03T04:26:36.397Z,58.23
2019-05-03T04:29:05.352Z,59.73
2019-05-03T04:31:32.847Z,59.29
2019-05-03T04:34:00.010Z,59.60
2019-05-03T04:36:27.503Z,59.79
2019-05-03T04:38:56.207Z,59.71
2019-05-03T04:41:26.859Z,62.71
2019-05-03T04:43:55.379Z,61.91
2019-05-03T04:46:25.981Z,60.72
2019-05-03T04:48:55.901Z,59.88
2019-05-03T04:51:22.262Z,59.10
2019-05-03T04:53:56.083Z,60.64
2019-05-03T04:56:25.154Z,59.37
2019-05-03T04:58:52.532Z,58.92
2019-05-03T05:01:19.887Z,60.03
2019-05-03T05:03:47.273Z,58.68
2019-05-03T05:06:15.444Z,59.15
2019-05-03T05:08:46.096Z,58.22
2019-05-03T05:11:15.835Z,58.20
2019-05-03T05:13:51.748Z,57.86
2019-05-03T05:16:19.067Z,58.09
2019-05-03T05:18:51.606Z,57.22
2019-05-03T05:21:38.946Z,58.37
2019-05-03T05:24:06.373Z,57.85
2019-05-03T05:26:58.052Z,56.67
2019-05-03T05:29:27.557Z,57.13
2019-05-03T05:31:55.621Z,56.85
2019-05-03T05:34:24.565Z,56.20
2019-05-03T05:36:52.004Z,55.99
2019-05-03T05:39:19.368Z,55.15
2019-05-03T05:41:46.622Z,56.00
2019-05-03T05:44:14.473Z,55.29
2019-05-03T05:47:01.476Z,54.62
2019-05-03T05:49:41.943Z,54.87
2019-05-03T05:52:09.215Z,54.96
2019-05-03T05:54:38.487Z,53.90
2019-05-03T05:57:25.741Z,54.09
2019-05-03T05:59:59.314Z,54.10
2019-05-03T06:02:26.783Z,53.59
2019-05-03T06:04:54.410Z,53.85
2019-05-03T06:07:39.452Z,53.55
2019-05-03T06:10:25.972Z,53.79
2019-05-03T06:13:10.766Z,53.25
2019-05-03T06:15:44.849Z,53.30
2019-05-03T06:18:17.734Z,53.08
2019-05-03T06:21:01.678Z,52.76
2019-05-03T06:23:39.476Z,52.87
2019-05-03T06:26:26.388Z,52.68
2019-05-03T06:28:54.495Z,52.39
2019-05-03T06:31:29.051Z,52.33
2019-05-03T06:33:56.210Z,52.27
2019-05-03T06:36:24.348Z,52.17
2019-05-03T06:38:51.847Z,52.20
2019-05-03T06:41:19.111Z,51.95
2019-05-03T06:43:48.786Z,52.17
2019-05-03T06:46:18.246Z,51.88
2019-05-03T06:48:44.939Z,51.98
2019-05-03T06:51:17.877Z,51.84
2019-05-03T06:53:41.885Z,51.56
2019-05-03T06:56:10.643Z,50.96
2019-05-03T06:58:37.891Z,51.16
2019-05-03T07:01:25.301Z,50.81
2019-05-03T07:04:10.159Z,49.82
2019-05-03T07:06:47.938Z,48.86
2019-05-03T07:09:35.432Z,48.45
2019-05-03T07:12:04.505Z,48.64
2019-05-03T07:14:35.697Z,48.45
2019-05-03T07:17:05.369Z,48.55
2019-05-03T07:19:32.180Z,48.61
2019-05-03T07:21:59.326Z,48.25
2019-05-03T07:24:26.581Z,48.71
2019-05-03T07:26:55.141Z,48.53
2019-05-03T07:29:22.569Z,47.87
2019-05-03T07:31:49.738Z,48.68
2019-05-03T07:34:16.971Z,48.29
2019-05-03T07:36:44.634Z,48.03
2019-05-03T07:39:14.034Z,48.49
2019-05-03T07:41:41.349Z,48.61
2019-05-03T07:44:08.494Z,48.63
2019-05-03T07:46:35.857Z,48.74
2019-05-03T07:49:05.064Z,49.91
2019-05-03T07:51:34.850Z,52.23
2019-05-03T07:54:02.133Z,51.85
2019-05-03T07:56:36.483Z,51.39
2019-05-03T07:59:06.431Z,51.18
2019-05-03T08:01:47.055Z,51.74
2019-05-03T08:04:15.396Z,51.16
2019-05-03T08:06:44.598Z,51.09
2019-05-03T08:09:12.190Z,50.79
2019-05-03T08:11:39.579Z,50.18
2019-05-03T08:14:07.564Z,49.90
2019-05-03T08:16:35.284Z,49.61
2019-05-03T08:19:04.932Z,49.23
2019-05-03T08:21:37.475Z,48.66
2019-05-03T08:24:04.503Z,48.74
2019-05-03T08:26:31.951Z,48.33
2019-05-03T08:28:59.120Z,48.17
2019-05-03T08:31:48.642Z,47.61
2019-05-03T08:34:27.884Z,47.21
2019-05-03T08:36:57.724Z,46.93
2019-05-03T08:39:25.439Z,46.52
2019-05-03T08:41:58.843Z,44.98
2019-05-03T08:44:28.727Z,45.51
2019-05-03T08:46:56.782Z,44.09
2019-05-03T08:49:25.517Z,44.45
2019-05-03T08:51:54.943Z,44.08
2019-05-03T08:54:22.869Z,42.61
2019-05-03T08:56:50.171Z,43.06
2019-05-03T08:59:28.782Z,42.72
2019-05-03T09:01:46.934Z,42.23
2019-05-03T09:04:15.459Z,41.48
2019-05-03T09:06:44.596Z,41.90
2019-05-03T09:09:25.489Z,41.30
2019-05-03T09:11:52.955Z,41.93
2019-05-03T09:14:20.316Z,42.09
2019-05-03T09:16:47.491Z,42.73
2019-05-03T09:19:14.971Z,41.25
2019-05-03T09:21:42.215Z,41.01
2019-05-03T09:24:09.582Z,40.76
2019-05-03T09:26:36.861Z,40.73
2019-05-03T09:29:05.539Z,41.02
2019-05-03T09:31:32.887Z,41.21
2019-05-03T09:34:00.044Z,40.93
2019-05-03T09:36:27.392Z,40.44
2019-05-03T09:38:55.027Z,41.13
2019-05-03T09:41:22.388Z,40.22
2019-05-03T09:43:49.540Z,40.13
2019-05-03T09:46:16.894Z,39.56
2019-05-03T09:48:45.315Z,40.10
2019-05-03T09:51:14.751Z,38.66
2019-05-03T09:53:50.356Z,38.08
2019-05-03T09:56:20.402Z,37.23
2019-05-03T09:58:47.761Z,37.23
2019-05-03T10:01:15.207Z,38.04
2019-05-03T10:03:42.597Z,37.32
2019-05-03T10:06:09.845Z,36.48
2019-05-03T10:08:37.008Z,35.15
2019-05-03T10:11:10.192Z,35.70
2019-05-03T10:13:41.454Z,34.94
2019-05-03T10:16:07.469Z,36.42
2019-05-03T10:18:35.370Z,36.05
2019-05-03T10:21:05.085Z,34.56
2019-05-03T10:23:49.854Z,34.17
2019-05-03T10:26:17.213Z,34.39
2019-05-03T10:28:44.567Z,33.74
2019-05-03T10:31:12.023Z,33.31
2019-05-03T10:34:05.846Z,33.64
2019-05-03T10:36:35.499Z,34.01
2019-05-03T10:39:04.857Z,33.16
2019-05-03T10:41:34.629Z,31.87
2019-05-03T10:44:01.797Z,28.85
2019-05-03T10:46:28.941Z,29.53
2019-05-03T10:48:56.321Z,29.65
2019-05-03T10:51:26.490Z,30.34
2019-05-03T10:53:57.229Z,30.05
2019-05-03T10:56:31.843Z,29.30
2019-05-03T10:59:06.017Z,30.61
2019-05-03T11:01:41.612Z,30.20
2019-05-03T11:04:08.780Z,30.40
2019-05-03T11:06:36.158Z,31.13
2019-05-03T11:09:05.732Z,31.30
2019-05-03T11:11:35.194Z,31.61
2019-05-03T11:14:05.224Z,31.68
2019-05-03T11:16:31.943Z,32.30
2019-05-03T11:18:59.218Z,31.95
2019-05-03T11:21:28.869Z,32.07
2019-05-03T11:23:55.515Z,32.48
2019-05-03T11:26:25.126Z,31.47
2019-05-03T11:28:51.827Z,30.80
2019-05-03T11:31:37.581Z,30.61
2019-05-03T11:34:15.139Z,30.79
2019-05-03T11:37:17.117Z,31.68
2019-05-03T11:39:45.217Z,31.30
2019-05-03T11:42:12.601Z,29.51
2019-05-03T11:44:39.864Z,30.99
2019-05-03T11:47:08.044Z,30.13
2019-05-03T11:49:35.518Z,30.58
2019-05-03T11:52:03.378Z,29.71
2019-05-03T11:54:30.616Z,30.02
2019-05-03T11:56:59.932Z,29.34
2019-05-03T11:59:27.082Z,29.39
2019-05-03T12:02:04.800Z,27.97
2019-05-03T12:04:32.170Z,26.47
2019-05-03T12:06:59.314Z,27.87
2019-05-03T12:09:26.569Z,28.07
2019-05-03T12:11:55.468Z,26.81
2019-05-03T12:14:24.407Z,26.64
2019-05-03T12:17:17.166Z,27.31
2019-05-03T12:19:31.193Z,26.92
2019-05-03T12:21:56.951Z,26.52
2019-05-03T12:24:26.658Z,26.36
2019-05-03T12:26:55.662Z,26.53
2019-05-03T12:29:24.582Z,25.21
2019-05-03T12:31:52.158Z,25.55
2019-05-03T12:34:19.304Z,24.90
2019-05-03T12:36:46.541Z,26.37
2019-05-03T12:39:24.378Z,25.03
2019-05-03T12:41:42.899Z,25.17
2019-05-03T12:44:10.067Z,25.66
2019-05-03T12:46:37.196Z,23.73
2019-05-03T12:49:05.278Z,24.07
2019-05-03T12:51:34.536Z,23.80
2019-05-03T12:54:01.800Z,24.82
2019-05-03T12:56:32.563Z,23.85
2019-05-03T12:59:06.788Z,25.61
2019-05-03T13:01:46.333Z,25.15
2019-05-03T13:04:17.498Z,25.54
2019-05-03T13:06:50.328Z,25.73
2019-05-03T13:09:17.702Z,25.95
2019-05-03T13:11:55.287Z,25.96
2019-05-03T13:14:15.940Z,24.75
2019-05-03T13:16:44.515Z,24.11
2019-05-03T13:19:12.243Z,24.15
2019-05-03T13:21:39.410Z,25.22
2019-05-03T13:24:06.657Z,24.84
2019-05-03T13:26:35.036Z,25.46
2019-05-03T13:29:02.789Z,25.15
2019-05-03T13:31:29.939Z,25.69
2019-05-03T13:33:57.191Z,24.85
2019-05-03T13:36:25.261Z,25.37
2019-05-03T13:38:54.535Z,25.58
2019-05-03T13:41:21.698Z,25.81
2019-05-03T13:43:49.057Z,26.41
2019-05-03T13:46:16.298Z,24.06
2019-05-03T13:48:46.625Z,24.50
2019-05-03T13:51:14.723Z,25.79
2019-05-03T13:53:41.893Z,25.23
2019-05-03T13:56:09.162Z,24.98
2019-05-03T13:58:36.427Z,24.68
2019-05-03T14:01:05.574Z,25.73
2019-05-03T14:03:35.088Z,26.19
2019-05-03T14:06:07.634Z,25.51
2019-05-03T14:08:31.826Z,25.09
2019-05-03T14:10:59.283Z,25.71
2019-05-03T14:13:26.530Z,25.59
2019-05-03T14:15:54.781Z,26.40
2019-05-03T14:18:22.086Z,25.32
2019-05-03T14:21:11.854Z,26.12
2019-05-03T14:23:57.564Z,24.74
2019-05-03T14:26:24.836Z,26.28
2019-05-03T14:28:52.073Z,25.74
2019-05-03T14:31:19.222Z,24.62
2019-05-03T14:33:46.388Z,23.84
2019-05-03T14:36:15.919Z,24.47
2019-05-03T14:38:42.626Z,25.62
2019-05-03T14:41:10.004Z,25.19
2019-05-03T14:43:37.269Z,24.84
2019-05-03T14:46:29.199Z,25.71
2019-05-03T14:48:45.796Z,26.32
2019-05-03T14:51:14.727Z,26.16
2019-05-03T14:53:42.312Z,27.24
2019-05-03T14:56:18.370Z,27.37
2019-05-03T14:59:07.964Z,26.06
2019-05-03T15:01:44.087Z,26.94
2019-05-03T15:04:11.419Z,26.16
2019-05-03T15:06:38.661Z,26.73
2019-05-03T15:09:06.916Z,27.18
2019-05-03T15:11:34.597Z,27.27
2019-05-03T15:14:01.979Z,26.58
2019-05-03T15:16:29.346Z,27.04
2019-05-03T15:18:56.609Z,26.35
2019-05-03T15:21:25.162Z,26.67
2019-05-03T15:23:52.419Z,27.22
2019-05-03T15:26:19.699Z,27.18
2019-05-03T15:28:46.826Z,26.89
2019-05-03T15:31:14.078Z,27.81
2019-05-03T15:33:41.351Z,26.89
2019-05-03T15:36:08.891Z,27.13
2019-05-03T15:38:36.260Z,27.31
2019-05-03T15:41:05.430Z,28.04
2019-05-03T15:43:42.742Z,27.64
2019-05-03T15:46:29.536Z,26.79
2019-05-03T15:48:58.551Z,26.99
2019-05-03T15:51:25.851Z,27.56
2019-05-03T15:53:54.980Z,27.65
2019-05-03T15:56:22.196Z,27.56
2019-05-03T15:58:49.457Z,27.20
2019-05-03T16:01:16.623Z,27.49
2019-05-03T16:03:44.869Z,28.58
2019-05-03T16:06:12.318Z,28.48
2019-05-03T16:08:39.684Z,28.38
2019-05-03T16:11:06.938Z,28.49
2019-05-03T16:13:38.155Z,28.82
2019-05-03T16:16:05.108Z,28.75
2019-05-03T16:18:32.388Z,29.05
2019-05-03T16:20:59.740Z,29.05
2019-05-03T16:23:27.123Z,28.84
2019-05-03T16:25:54.615Z,28.58
2019-05-03T16:28:42.143Z,28.75
2019-05-03T16:31:15.386Z,28.72
2019-05-03T16:33:42.574Z,28.95
2019-05-03T16:36:09.854Z,29.34
2019-05-03T16:38:37.249Z,29.53
2019-05-03T16:41:05.178Z,29.29
2019-05-03T16:43:32.446Z,29.30
2019-05-03T16:45:59.612Z,29.28
2019-05-03T16:48:26.981Z,29.32
2019-05-03T16:50:54.453Z,29.69
2019-05-03T16:53:21.767Z,29.94
2019-05-03T16:55:48.984Z,29.73
2019-05-03T16:58:16.999Z,30.10
2019-05-03T17:00:44.828Z,30.26
2019-05-03T17:03:12.387Z,29.97
2019-05-03T17:06:17.261Z,30.32
2019-05-03T17:09:10.050Z,30.14
2019-05-03T17:11:37.290Z,30.00
2019-05-03T17:14:05.076Z,30.05
2019-05-03T17:16:34.535Z,29.95
2019-05-03T17:19:01.939Z,30.06
2019-05-03T17:21:29.191Z,29.94
2019-05-03T17:23:56.464Z,30.43
2019-05-03T17:26:24.908Z,30.45
2019-05-03T17:28:52.239Z,30.66
2019-05-03T17:31:19.642Z,30.64
2019-05-03T17:33:53.552Z,30.63
2019-05-03T17:36:16.076Z,30.81
2019-05-03T17:38:44.348Z,31.18
2019-05-03T17:41:35.311Z,30.97
2019-05-03T17:44:06.176Z,31.04
2019-05-03T17:46:34.740Z,31.50
2019-05-03T17:49:02.184Z,31.65
2019-05-03T17:51:45.593Z,31.66
2019-05-03T17:54:33.393Z,32.02
2019-05-03T17:57:20.436Z,32.04
2019-05-03T17:59:52.338Z,32.23
2019-05-03T18:02:29.203Z,32.39
2019-05-03T18:05:16.103Z,32.45
2019-05-03T18:08:06.121Z,32.63
2019-05-03T18:10:34.702Z,32.72
2019-05-03T18:13:02.091Z,33.21
2019-05-03T18:15:29.230Z,33.29
2019-05-03T18:17:56.478Z,33.47
2019-05-03T18:20:25.452Z,33.52
2019-05-03T18:22:54.717Z,33.70
2019-05-03T18:25:22.054Z,33.79
2019-05-03T18:27:49.311Z,33.83
2019-05-03T18:30:16.587Z,33.94
2019-05-03T18:32:45.258Z,34.20
2019-05-03T18:35:12.607Z,34.39
2019-05-03T18:37:39.890Z,34.50
2019-05-03T18:40:08.358Z,34.47
2019-05-03T18:42:41.476Z,34.79
2019-05-03T18:45:15.555Z,34.79
2019-05-03T18:47:42.806Z,35.02
2019-05-03T18:50:10.901Z,35.23
2019-05-03T18:52:38.187Z,35.48
2019-05-03T18:55:05.669Z,35.60
2019-05-03T18:57:32.927Z,35.96
2019-05-03T19:00:00.093Z,35.87
2019-05-03T19:02:27.271Z,36.25
2019-05-03T19:04:54.966Z,36.44
2019-05-03T19:07:41.206Z,36.42
2019-05-03T19:10:35.437Z,36.46
2019-05-03T19:13:26.472Z,36.87
2019-05-03T19:15:55.044Z,37.19
2019-05-03T19:18:40.595Z,37.65
2019-05-03T19:21:07.973Z,37.95
2019-05-03T19:23:35.608Z,38.10
2019-05-03T19:26:05.401Z,38.30
2019-05-03T19:28:32.486Z,38.49
2019-05-03T19:30:59.979Z,38.76
2019-05-03T19:33:27.224Z,38.64
2019-05-03T19:35:55.059Z,38.80
2019-05-03T19:38:24.500Z,39.23
2019-05-03T19:40:51.601Z,39.51
2019-05-03T19:43:19.035Z,39.26
2019-05-03T19:45:46.294Z,39.37
2019-05-03T19:48:14.757Z,39.49
2019-05-03T19:50:44.545Z,39.85
2019-05-03T19:53:46.620Z,40.04
2019-05-03T19:56:14.769Z,39.88
2019-05-03T19:58:42.160Z,40.47
2019-05-03T20:01:31.661Z,40.23
2019-05-03T20:04:05.972Z,40.39
2019-05-03T20:06:41.555Z,41.52
2019-05-03T20:09:12.644Z,40.10
2019-05-03T20:11:39.939Z,40.81
2019-05-03T20:14:07.188Z,40.69
2019-05-03T20:16:34.799Z,40.33
2019-05-03T20:19:15.336Z,40.39
2019-05-03T20:21:31.425Z,40.41
2019-05-03T20:23:58.691Z,41.03
2019-05-03T20:26:26.033Z,40.90
2019-05-03T20:28:55.147Z,41.24
2019-05-03T20:31:22.357Z,41.00
2019-05-03T20:33:49.910Z,41.18
2019-05-03T20:36:17.305Z,41.44
2019-05-03T20:38:44.676Z,40.49
2019-05-03T20:41:12.062Z,41.10
2019-05-03T20:43:50.190Z,41.67
2019-05-03T20:46:25.460Z,41.25
2019-05-03T20:48:55.665Z,41.41
2019-05-03T20:51:22.905Z,41.23
2019-05-03T20:53:50.176Z,41.70
2019-05-03T20:56:17.351Z,41.83
2019-05-03T20:58:44.787Z,42.67
2019-05-03T21:01:12.310Z,41.96
2019-05-03T21:03:39.496Z,42.10
2019-05-03T21:06:06.872Z,42.06
2019-05-03T21:08:34.635Z,42.07
2019-05-03T21:11:02.211Z,41.67
2019-05-03T21:13:41.763Z,42.43
2019-05-03T21:16:18.838Z,41.71
2019-05-03T21:18:52.243Z,42.39
2019-05-03T21:21:41.448Z,42.65
2019-05-03T21:24:17.089Z,42.44
2019-05-03T21:26:45.138Z,42.83
2019-05-03T21:29:12.330Z,43.30
2019-05-03T21:31:39.805Z,43.76
2019-05-03T21:34:07.066Z,43.12
2019-05-03T21:36:34.939Z,43.49
2019-05-03T21:39:02.666Z,43.49
2019-05-03T21:41:29.818Z,45.12
2019-05-03T21:43:56.991Z,44.40
2019-05-03T21:46:30.646Z,44.00
2019-05-03T21:49:04.462Z,44.17
2019-05-03T21:51:31.923Z,44.65
2019-05-03T21:53:59.066Z,43.97
2019-05-03T21:56:32.084Z,44.54
2019-05-03T21:58:59.236Z,44.12
2019-05-03T22:01:26.894Z,44.90
2019-05-03T22:03:54.301Z,46.13
2019-05-03T22:06:21.575Z,44.92
2019-05-03T22:08:48.833Z,46.59
2019-05-03T22:11:16.209Z,46.80
2019-05-03T22:13:45.538Z,44.77
2019-05-03T22:16:16.584Z,45.30
2019-05-03T22:18:45.461Z,45.96
2019-05-03T22:21:28.389Z,45.93
2019-05-03T22:24:15.197Z,45.11
2019-05-03T22:27:11.078Z,46.03
2019-05-03T22:29:38.323Z,46.09
2019-05-03T22:32:05.682Z,46.42
2019-05-03T22:34:34.824Z,46.12
2019-05-03T22:37:02.348Z,46.63
2019-05-03T22:39:29.491Z,46.59
2019-05-03T22:41:56.930Z,47.77
2019-05-03T22:44:25.304Z,47.31
2019-05-03T22:46:54.968Z,46.30
2019-05-03T22:49:22.021Z,46.61
2019-05-03T22:51:49.502Z,47.98
2019-05-03T22:54:16.772Z,46.61
2019-05-03T22:56:44.770Z,47.70
2019-05-03T22:59:14.506Z,47.65
2019-05-03T23:01:41.708Z,47.99
2019-05-03T23:04:08.985Z,48.04
2019-05-03T23:06:36.128Z,49.46
2019-05-03T23:09:05.637Z,48.32
2019-05-03T23:11:35.200Z,49.61
2019-05-03T23:14:04.655Z,49.32
2019-05-03T23:16:32.809Z,49.91
2019-05-03T23:19:00.600Z,49.36
2019-05-03T23:21:33.089Z,49.13
2019-05-03T23:24:00.280Z,50.00
2019-05-03T23:26:27.532Z,49.71
2019-05-03T23:28:55.141Z,50.97
2019-05-03T23:31:22.338Z,50.56
2019-05-03T23:33:49.595Z,49.07
2019-05-03T23:36:16.735Z,50.75
2019-05-03T23:38:45.250Z,50.09
2019-05-03T23:41:12.770Z,50.24
2019-05-03T23:43:39.939Z,49.93
2019-05-03T23:46:08.098Z,49.32
2019-05-03T23:48:35.347Z,51.82
2019-05-03T23:51:04.568Z,49.97
2019-05-03T23:53:31.883Z,50.33
2019-05-03T23:56:09.024Z,50.12
2019-05-03T23:58:36.177Z,50.35
